Time;durP1;ratioP1;P1;durP2;ratioP2;P2;SDS_P1;SDS_P2;PMS_P1;PMS_P2;Temp;Humidity;BMP_temperature;BMP_pressure;BME280_temperature;BME280_humidity;BME280_pressure;Samples;Min_cycle;Max_cycle;Signal;HPM_P1;HPM_P2
2022/09/29 00:00:08;;;;;;;0.15;0.10;;;7.80;99.90;;;;;;5093799;28;20052;-70
2022/09/29 00:02:34;;;;;;;1.38;0.20;;;7.80;99.90;;;;;;5093383;28;20078;-69
2022/09/29 00:05:00;;;;;;;0.40;0.10;;;7.80;99.90;;;;;;5093470;28;20472;-70
2022/09/29 00:07:27;;;;;;;0.10;0.10;;;7.80;99.90;;;;;;5093181;28;20059;-70
2022/09/29 00:09:53;;;;;;;0.17;0.13;;;7.70;99.90;;;;;;5093428;28;20067;-70
2022/09/29 00:12:19;;;;;;;0.90;0.10;;;7.70;99.90;;;;;;5093728;28;20048;-70
2022/09/29 00:14:44;;;;;;;0.95;0.20;;;7.70;99.90;;;;;;5093365;28;20034;-70
2022/09/29 00:17:10;;;;;;;0.08;0.08;;;7.60;99.90;;;;;;5093200;28;20100;-70
2022/09/29 00:19:36;;;;;;;0.28;0.20;;;7.60;99.90;;;;;;5093248;28;20032;-69
2022/09/29 00:22:01;;;;;;;0.10;0.10;;;7.60;99.90;;;;;;5075258;28;20039;-69
2022/09/29 00:24:28;;;;;;;0.20;0.10;;;7.60;99.90;;;;;;5093206;28;20032;-70
2022/09/29 00:26:53;;;;;;;0.50;0.10;;;7.60;99.90;;;;;;5098388;28;20021;-70
2022/09/29 00:29:19;;;;;;;0.10;0.10;;;7.60;99.90;;;;;;5100259;28;20028;-70
2022/09/29 00:31:45;;;;;;;0.20;0.20;;;7.60;99.90;;;;;;5099944;28;20032;-70
2022/09/29 00:34:10;;;;;;;0.73;0.20;;;7.60;99.90;;;;;;5099937;28;20399;-70
2022/09/29 00:36:37;;;;;;;0.10;0.10;;;7.60;99.90;;;;;;5099591;28;20054;-70
2022/09/29 00:39:02;;;;;;;0.10;0.10;;;7.60;99.90;;;;;;5099931;28;20020;-70
2022/09/29 00:41:32;;;;;;;0.15;0.10;;;7.60;99.90;;;;;;5099717;28;20038;-70
2022/09/29 00:44:13;;;;;;;0.15;0.10;;;7.50;99.90;;;;;;5100186;28;20429;-70
2022/09/29 00:46:53;;;;;;;0.38;0.10;;;7.50;99.90;;;;;;5099784;28;20019;-70
2022/09/29 00:49:32;;;;;;;0.30;0.20;;;7.40;99.90;;;;;;5100088;28;20020;-70
2022/09/29 00:52:04;;;;;;;0.20;0.20;;;7.30;99.90;;;;;;5081366;28;20032;-69
2022/09/29 00:54:37;;;;;;;0.10;0.10;;;7.30;99.90;;;;;;5099756;28;20023;-71
2022/09/29 00:57:06;;;;;;;0.10;0.10;;;7.30;99.90;;;;;;5099758;28;20024;-70
2022/09/29 01:00:03;;;;;;;0.30;0.20;;;7.40;99.90;;;;;;5099951;28;20035;-70
2022/09/29 01:02:31;;;;;;;0.10;0.10;;;7.40;99.90;;;;;;5091253;28;20074;-71
2022/09/29 01:04:58;;;;;;;0.10;0.10;;;7.50;99.90;;;;;;5099640;28;20383;-70
2022/09/29 01:07:26;;;;;;;0.65;0.32;;;7.50;99.90;;;;;;5099333;28;20028;-69
2022/09/29 01:09:55;;;;;;;0.90;0.10;;;7.50;99.90;;;;;;5099621;28;20379;-70
2022/09/29 01:12:22;;;;;;;0.10;0.10;;;7.50;99.90;;;;;;5099622;28;20020;-71
2022/09/29 01:14:48;;;;;;;0.10;0.10;;;7.50;99.90;;;;;;5099538;28;20020;-70
2022/09/29 01:17:15;;;;;;;0.28;0.20;;;7.50;99.90;;;;;;5099344;28;20039;-71
2022/09/29 01:19:58;;;;;;;0.35;0.30;;;7.50;99.90;;;;;;5099437;28;20034;-70
2022/09/29 01:22:41;;;;;;;0.10;0.10;;;7.50;99.90;;;;;;5099215;28;20024;-70
2022/09/29 01:25:32;;;;;;;0.40;0.20;;;7.50;99.90;;;;;;5099487;28;20024;-70
2022/09/29 01:28:00;;;;;;;0.20;0.15;;;7.50;99.90;;;;;;5099625;28;20021;-70
2022/09/29 01:31:03;;;;;;;0.30;0.20;;;7.40;99.90;;;;;;5099423;28;20028;-70
2022/09/29 01:33:35;;;;;;;0.60;0.30;;;7.40;99.90;;;;;;5099354;28;20039;-70
2022/09/29 01:36:38;;;;;;;0.10;0.10;;;7.30;99.90;;;;;;5099662;28;20433;-70
2022/09/29 01:39:26;;;;;;;0.10;0.10;;;7.30;99.90;;;;;;5088561;28;20432;-70
2022/09/29 01:42:02;;;;;;;0.73;0.20;;;7.20;99.90;;;;;;5096091;28;20076;-70
2022/09/29 01:44:37;;;;;;;0.45;0.10;;;7.20;99.90;;;;;;5096119;28;20024;-70
2022/09/29 01:47:23;;;;;;;0.32;0.20;;;7.10;99.90;;;;;;5096524;28;20173;-70
2022/09/29 01:50:27;;;;;;;0.35;0.28;;;7.00;99.90;;;;;;5096397;28;20064;-70
2022/09/29 01:53:00;;;;;;;0.43;0.25;;;6.90;99.90;;;;;;5089571;28;20555;-70
2022/09/29 01:55:30;;;;;;;1.02;0.20;;;6.90;99.90;;;;;;5095911;28;20440;-70
2022/09/29 01:58:07;;;;;;;1.15;0.20;;;6.90;99.90;;;;;;5077536;28;20078;-70
2022/09/29 02:00:42;;;;;;;0.20;0.20;;;7.00;99.90;;;;;;5077937;28;20032;-70
2022/09/29 02:03:11;;;;;;;0.30;0.20;;;6.90;99.90;;;;;;5095988;28;20024;-70
2022/09/29 02:06:03;;;;;;;1.70;0.65;;;7.00;99.90;;;;;;5095960;28;20028;-70
2022/09/29 02:08:58;;;;;;;5.00;1.65;;;7.00;99.90;;;;;;5095348;28;20016;-70
2022/09/29 02:11:25;;;;;;;4.93;1.77;;;7.00;99.90;;;;;;5086411;28;20052;-71
2022/09/29 02:13:57;;;;;;;3.30;1.35;;;7.10;99.90;;;;;;5095788;28;20020;-71
2022/09/29 02:16:28;;;;;;;3.08;1.00;;;7.10;99.90;;;;;;5095481;28;20028;-71
2022/09/29 02:19:01;;;;;;;1.95;0.80;;;7.00;99.90;;;;;;5095743;28;20036;-71
2022/09/29 02:21:28;;;;;;;2.65;0.80;;;7.00;99.90;;;;;;5095033;28;20059;-70
2022/09/29 02:23:54;;;;;;;2.13;0.90;;;7.10;99.90;;;;;;5095642;28;20048;-71
2022/09/29 02:26:22;;;;;;;3.45;1.80;;;7.00;99.90;;;;;;5095512;28;20472;-71
2022/09/29 02:28:48;;;;;;;2.60;1.60;;;7.00;99.90;;;;;;5095686;28;20020;-70
2022/09/29 02:31:14;;;;;;;2.33;1.45;;;7.00;99.90;;;;;;5095214;28;20099;-71
2022/09/29 02:33:39;;;;;;;1.40;1.00;;;7.10;99.90;;;;;;5095081;28;20510;-71
2022/09/29 02:36:05;;;;;;;1.45;0.85;;;7.00;99.90;;;;;;5095347;28;20020;-71
2022/09/29 02:39:11;;;;;;;2.63;0.40;;;7.00;99.90;;;;;;5094671;28;20421;-70
2022/09/29 02:42:09;;;;;;;0.35;0.25;;;7.00;99.90;;;;;;5052572;28;20033;-70
2022/09/29 02:44:44;;;;;;;0.30;0.30;;;7.00;99.90;;;;;;5045329;28;20400;-70
2022/09/29 02:47:46;;;;;;;0.40;0.22;;;7.00;99.90;;;;;;5084961;28;20038;-70
2022/09/29 02:51:06;;;;;;;1.17;0.20;;;7.00;99.90;;;;;;5094556;28;20059;-70
2022/09/29 02:53:59;;;;;;;0.82;0.38;;;6.90;99.90;;;;;;5035547;28;20021;-70
2022/09/29 02:56:33;;;;;;;0.40;0.20;;;6.80;99.90;;;;;;5052392;28;20025;-70
2022/09/29 02:59:14;;;;;;;0.57;0.20;;;6.80;99.90;;;;;;5086837;28;20028;-70
2022/09/29 03:01:50;;;;;;;0.38;0.28;;;6.70;99.90;;;;;;5094561;28;20082;-70
2022/09/29 03:04:15;;;;;;;1.63;0.43;;;6.60;99.90;;;;;;5095023;28;20067;-70
2022/09/29 03:06:41;;;;;;;1.10;0.60;;;6.50;99.90;;;;;;5094470;28;20052;-70
2022/09/29 03:09:07;;;;;;;2.40;1.23;;;6.40;99.90;;;;;;5094441;28;20030;-70
2022/09/29 03:11:32;;;;;;;5.53;2.75;;;6.30;99.90;;;;;;5094373;28;20040;-70
2022/09/29 03:13:58;;;;;;;33.70;12.75;;;6.20;99.90;;;;;;5094581;28;20034;-71
2022/09/29 03:16:24;;;;;;;45.70;19.33;;;6.20;99.90;;;;;;5094717;28;20028;-71
2022/09/29 03:18:49;;;;;;;55.25;22.15;;;6.10;99.90;;;;;;5094122;28;20043;-71
2022/09/29 03:21:15;;;;;;;52.30;22.90;;;6.10;99.90;;;;;;5094041;28;20028;-70
2022/09/29 03:23:41;;;;;;;45.03;19.63;;;6.10;99.90;;;;;;5093877;28;20146;-70
2022/09/29 03:26:07;;;;;;;37.30;21.17;;;6.10;99.90;;;;;;5094068;28;20036;-71
2022/09/29 03:28:34;;;;;;;21.13;12.38;;;6.20;99.90;;;;;;5093814;28;20536;-70
2022/09/29 03:31:08;;;;;;;14.95;6.80;;;6.20;99.90;;;;;;5085478;28;20056;-70
2022/09/29 03:33:37;;;;;;;9.27;4.75;;;6.10;99.90;;;;;;5073557;28;20035;-70
2022/09/29 03:36:04;;;;;;;8.18;3.25;;;6.10;99.90;;;;;;5073466;28;20040;-70
2022/09/29 03:38:33;;;;;;;4.85;2.80;;;6.10;99.90;;;;;;5076454;28;20052;-70
2022/09/29 03:40:59;;;;;;;3.20;1.10;;;6.10;99.90;;;;;;5073504;28;20024;-70
2022/09/29 03:43:25;;;;;;;1.20;0.75;;;6.20;99.90;;;;;;5073370;28;20142;-70
2022/09/29 03:45:53;;;;;;;1.73;0.90;;;6.20;99.90;;;;;;5073424;28;20024;-70
2022/09/29 03:48:19;;;;;;;1.85;0.80;;;6.30;99.90;;;;;;5073254;28;20025;-70
2022/09/29 03:50:46;;;;;;;1.30;0.68;;;6.30;99.90;;;;;;5073206;28;20534;-70
2022/09/29 03:53:12;;;;;;;1.95;0.90;;;6.30;99.90;;;;;;5073717;28;20024;-71
2022/09/29 03:55:39;;;;;;;2.58;1.30;;;6.30;99.90;;;;;;5073292;28;20028;-70
2022/09/29 03:58:05;;;;;;;2.63;1.48;;;6.30;99.90;;;;;;5073152;28;20036;-70
2022/09/29 04:00:30;;;;;;;3.33;1.60;;;6.30;99.90;;;;;;5072697;28;20086;-70
2022/09/29 04:02:56;;;;;;;3.40;1.48;;;6.30;99.90;;;;;;5055053;28;20033;-70
2022/09/29 04:05:22;;;;;;;2.40;1.10;;;6.30;99.90;;;;;;5073080;28;20030;-70
2022/09/29 04:07:48;;;;;;;3.75;1.60;;;6.30;99.90;;;;;;5072578;28;20077;-70
2022/09/29 04:10:13;;;;;;;2.47;1.30;;;6.30;99.90;;;;;;5073001;28;20029;-70
2022/09/29 04:12:39;;;;;;;2.60;1.35;;;6.30;99.90;;;;;;5072989;28;20032;-70
2022/09/29 04:15:06;;;;;;;2.10;1.30;;;6.40;99.90;;;;;;5072958;28;20029;-70
2022/09/29 04:17:32;;;;;;;3.35;1.20;;;6.40;99.90;;;;;;5073246;28;20178;-69
2022/09/29 04:19:58;;;;;;;1.35;0.80;;;6.40;99.90;;;;;;5072755;28;20087;-69
2022/09/29 04:22:23;;;;;;;4.35;1.52;;;6.40;99.90;;;;;;5072527;28;20064;-69
2022/09/29 04:24:50;;;;;;;3.25;1.90;;;6.40;99.90;;;;;;5073293;28;20079;-69
2022/09/29 04:27:17;;;;;;;3.20;2.28;;;6.40;99.90;;;;;;5073274;28;20017;-69
2022/09/29 04:29:42;;;;;;;6.20;3.60;;;6.40;99.90;;;;;;5073225;28;20469;-69
2022/09/29 04:32:08;;;;;;;4.18;2.83;;;6.40;99.90;;;;;;5073235;28;20082;-69
2022/09/29 04:34:34;;;;;;;4.72;2.25;;;6.40;99.90;;;;;;5072929;28;20033;-69
2022/09/29 04:37:00;;;;;;;3.33;1.80;;;6.40;99.90;;;;;;5055132;28;20029;-69
2022/09/29 04:39:26;;;;;;;4.50;1.73;;;6.40;99.90;;;;;;5072843;28;20035;-69
2022/09/29 04:41:52;;;;;;;2.67;1.70;;;6.40;99.90;;;;;;5072942;28;20058;-69
2022/09/29 04:44:21;;;;;;;2.40;1.50;;;6.30;99.90;;;;;;5072006;28;20532;-69
2022/09/29 04:46:49;;;;;;;2.30;1.45;;;6.40;99.90;;;;;;5072342;28;20021;-69
2022/09/29 04:49:14;;;;;;;2.78;1.50;;;6.40;99.90;;;;;;5071426;28;20017;-69
2022/09/29 04:51:40;;;;;;;2.35;1.38;;;6.40;99.90;;;;;;5072395;28;20035;-69
2022/09/29 04:54:06;;;;;;;3.13;2.05;;;6.50;99.90;;;;;;5072750;28;20050;-69
2022/09/29 04:56:32;;;;;;;2.70;1.88;;;6.50;99.90;;;;;;5071286;28;20020;-69
2022/09/29 04:58:58;;;;;;;3.10;1.83;;;6.40;99.90;;;;;;5071642;28;20037;-69
2022/09/29 05:01:24;;;;;;;3.03;1.80;;;6.40;99.90;;;;;;5071647;28;20024;-69
2022/09/29 05:03:50;;;;;;;2.92;1.80;;;6.40;99.90;;;;;;5072646;28;20029;-69
2022/09/29 05:06:16;;;;;;;5.13;2.92;;;6.40;99.90;;;;;;5072681;28;20021;-69
2022/09/29 05:08:41;;;;;;;7.38;3.72;;;6.40;99.90;;;;;;5072326;28;20027;-69
2022/09/29 05:11:09;;;;;;;27.83;14.63;;;6.40;99.90;;;;;;5072635;28;20044;-69
2022/09/29 05:13:36;;;;;;;23.75;13.73;;;6.40;99.90;;;;;;5075010;28;20024;-69
2022/09/29 05:16:02;;;;;;;21.25;12.13;;;6.40;99.90;;;;;;5076320;28;20031;-69
2022/09/29 05:18:29;;;;;;;15.00;8.52;;;6.40;99.90;;;;;;5076150;28;20115;-69
2022/09/29 05:20:55;;;;;;;12.48;7.30;;;6.40;99.90;;;;;;5089367;28;20426;-69
2022/09/29 05:23:21;;;;;;;9.05;5.88;;;6.40;99.90;;;;;;5096187;28;20458;-69
2022/09/29 05:25:47;;;;;;;7.45;4.70;;;6.40;99.90;;;;;;5096732;28;20409;-69
2022/09/29 05:28:16;;;;;;;6.70;4.18;;;6.30;99.90;;;;;;5096276;28;20024;-69
2022/09/29 05:30:42;;;;;;;7.38;3.88;;;6.30;99.90;;;;;;5096314;28;20023;-69
2022/09/29 05:33:08;;;;;;;6.50;4.20;;;6.30;99.90;;;;;;5096820;28;20028;-69
2022/09/29 05:35:34;;;;;;;6.07;3.80;;;6.30;99.90;;;;;;5096248;28;20051;-69
2022/09/29 05:38:00;;;;;;;8.27;5.13;;;6.30;99.90;;;;;;5095945;28;20032;-69
2022/09/29 05:40:25;;;;;;;12.20;5.75;;;6.40;99.90;;;;;;5096423;28;20032;-69
2022/09/29 05:42:52;;;;;;;11.30;6.15;;;6.40;99.90;;;;;;5096606;28;20036;-69
2022/09/29 05:45:17;;;;;;;12.10;6.07;;;6.40;99.90;;;;;;5096379;28;20031;-69
2022/09/29 05:47:44;;;;;;;9.88;5.43;;;6.50;99.90;;;;;;5096001;28;20024;-69
2022/09/29 05:50:11;;;;;;;13.20;6.72;;;6.50;99.90;;;;;;5096250;28;20032;-69
2022/09/29 05:52:38;;;;;;;12.68;7.32;;;6.50;99.90;;;;;;5095748;28;20027;-69
2022/09/29 05:55:04;;;;;;;10.90;6.30;;;6.50;99.90;;;;;;5096166;28;20036;-69
2022/09/29 05:57:30;;;;;;;9.98;6.32;;;6.50;99.90;;;;;;5095771;28;20093;-69
2022/09/29 05:59:56;;;;;;;9.57;5.65;;;6.50;99.90;;;;;;5077670;28;20024;-69
2022/09/29 06:02:22;;;;;;;9.00;5.80;;;6.50;99.90;;;;;;5095947;28;20043;-69
2022/09/29 06:04:48;;;;;;;10.05;5.57;;;6.60;99.90;;;;;;5095661;28;20016;-69
2022/09/29 06:07:14;;;;;;;11.63;6.40;;;6.60;99.90;;;;;;5095338;28;20396;-69
2022/09/29 06:09:39;;;;;;;7.97;5.00;;;6.60;99.90;;;;;;5095623;28;20025;-69
2022/09/29 06:12:05;;;;;;;10.10;4.80;;;6.60;99.90;;;;;;5095573;28;20372;-69
2022/09/29 06:14:31;;;;;;;8.35;5.10;;;6.70;99.90;;;;;;5096072;28;20514;-69
2022/09/29 06:16:56;;;;;;;6.68;4.45;;;6.60;99.90;;;;;;5077136;28;20040;-69
2022/09/29 06:19:22;;;;;;;7.18;3.80;;;6.60;99.90;;;;;;5095905;28;20055;-69
2022/09/29 06:21:48;;;;;;;6.55;4.50;;;6.60;99.90;;;;;;5095334;28;20060;-69
2022/09/29 06:24:13;;;;;;;8.82;4.45;;;6.60;99.90;;;;;;5095001;28;20091;-69
2022/09/29 06:26:39;;;;;;;5.75;4.13;;;6.60;99.90;;;;;;5095234;28;20031;-69
2022/09/29 06:29:05;;;;;;;7.97;5.25;;;6.60;99.90;;;;;;5095242;28;20103;-69
2022/09/29 06:31:31;;;;;;;9.98;6.45;;;6.60;99.90;;;;;;5095140;28;20036;-69
2022/09/29 06:34:02;;;;;;;7.50;5.03;;;6.60;99.90;;;;;;5095411;28;20084;-68
2022/09/29 06:39:18;;;;;;;8.73;5.50;;;6.70;99.90;;;;;;5095130;28;20026;-69
2022/09/29 06:41:55;;;;;;;8.95;5.55;;;6.70;99.90;;;;;;5095214;28;20099;-69
2022/09/29 06:44:26;;;;;;;9.63;5.30;;;6.70;99.90;;;;;;5095251;28;20020;-69
2022/09/29 06:46:53;;;;;;;7.85;5.13;;;6.70;99.90;;;;;;5095097;28;20027;-69
2022/09/29 06:49:19;;;;;;;7.70;4.85;;;6.70;99.90;;;;;;5094869;28;20020;-69
2022/09/29 06:51:45;;;;;;;8.00;5.00;;;6.70;99.90;;;;;;5094740;28;20032;-69
2022/09/29 06:54:17;;;;;;;8.30;5.78;;;6.70;99.90;;;;;;5094483;28;20026;-69
2022/09/29 06:56:47;;;;;;;7.43;4.85;;;6.70;99.90;;;;;;5094966;28;20024;-69
2022/09/29 06:59:12;;;;;;;9.75;6.28;;;6.70;99.90;;;;;;5094950;28;20113;-69
2022/09/29 07:01:38;;;;;;;7.70;5.70;;;6.70;99.90;;;;;;5094503;28;20076;-69
2022/09/29 07:04:04;;;;;;;8.05;5.28;;;6.80;99.90;;;;;;5094543;28;20032;-69
2022/09/29 07:06:29;;;;;;;8.38;5.55;;;6.70;99.90;;;;;;5094704;28;20073;-69
2022/09/29 07:08:57;;;;;;;6.97;4.57;;;6.70;99.90;;;;;;5094226;28;20095;-69
2022/09/29 07:11:23;;;;;;;6.95;4.82;;;6.70;99.90;;;;;;5094692;28;20026;-69
2022/09/29 07:13:50;;;;;;;7.82;5.40;;;6.80;99.90;;;;;;5094574;28;20028;-69
2022/09/29 07:16:16;;;;;;;7.93;5.40;;;6.80;99.90;;;;;;5076087;28;20025;-69
2022/09/29 07:18:42;;;;;;;9.35;5.22;;;6.80;99.90;;;;;;5094095;28;20141;-69
2022/09/29 07:21:11;;;;;;;7.38;5.30;;;6.90;99.90;;;;;;5094141;28;20028;-69
2022/09/29 07:23:38;;;;;;;7.38;5.18;;;6.90;99.90;;;;;;5093918;28;20103;-69
2022/09/29 07:26:05;;;;;;;9.23;5.07;;;6.90;99.90;;;;;;5094166;28;20039;-69
2022/09/29 07:28:31;;;;;;;7.95;4.82;;;6.90;99.90;;;;;;5094042;28;20059;-69
2022/09/29 07:30:58;;;;;;;7.32;4.90;;;6.90;99.90;;;;;;5094035;28;20060;-69
2022/09/29 07:33:24;;;;;;;12.15;5.18;;;7.00;99.90;;;;;;5094265;28;20099;-69
2022/09/29 07:35:53;;;;;;;8.40;4.95;;;7.10;99.90;;;;;;5093173;28;20103;-69
2022/09/29 07:38:19;;;;;;;7.15;4.60;;;7.20;99.90;;;;;;5093748;28;20487;-68
2022/09/29 07:40:45;;;;;;;7.30;5.22;;;7.30;99.90;;;;;;5093892;28;20036;-69
2022/09/29 07:43:11;;;;;;;7.32;4.75;;;7.40;99.90;;;;;;5093854;28;20028;-69
2022/09/29 07:45:36;;;;;;;6.32;4.15;;;7.40;99.90;;;;;;5076067;28;20041;-68
2022/09/29 07:48:03;;;;;;;6.40;4.57;;;7.50;99.90;;;;;;5093687;28;20498;-68
2022/09/29 07:50:28;;;;;;;7.57;4.80;;;7.50;99.90;;;;;;5093790;28;20051;-69
2022/09/29 07:52:54;;;;;;;6.72;4.70;;;7.50;99.90;;;;;;5093663;28;20483;-69
2022/09/29 07:55:20;;;;;;;6.20;4.60;;;7.60;99.90;;;;;;5093640;28;20035;-69
2022/09/29 07:57:50;;;;;;;6.18;4.43;;;7.60;99.90;;;;;;5075410;28;20024;-69
2022/09/29 08:00:16;;;;;;;9.68;5.82;;;7.60;99.90;;;;;;5093886;28;20027;-69
2022/09/29 08:02:43;;;;;;;9.02;5.70;;;7.70;99.90;;;;;;5093756;28;20036;-69
2022/09/29 08:05:08;;;;;;;8.48;5.63;;;7.60;99.90;;;;;;5093461;28;20429;-69
2022/09/29 08:07:34;;;;;;;9.07;6.10;;;7.70;99.90;;;;;;5093436;28;20028;-69
2022/09/29 08:10:00;;;;;;;10.00;6.13;;;7.70;99.90;;;;;;5093408;28;20082;-69
2022/09/29 08:12:26;;;;;;;8.05;5.45;;;7.80;99.90;;;;;;5093390;28;20039;-69
2022/09/29 08:14:52;;;;;;;10.15;7.20;;;7.90;99.90;;;;;;5093416;28;20020;-69
2022/09/29 08:17:17;;;;;;;10.60;6.80;;;8.00;99.90;;;;;;5093296;28;20046;-69
2022/09/29 08:19:43;;;;;;;11.45;7.05;;;8.10;99.90;;;;;;5093300;28;20032;-69
2022/09/29 08:22:09;;;;;;;10.55;7.05;;;8.30;99.90;;;;;;5093217;28;20035;-69
2022/09/29 08:24:39;;;;;;;9.23;6.50;;;8.30;99.90;;;;;;5093041;28;20539;-69
2022/09/29 08:27:05;;;;;;;10.43;6.97;;;8.40;99.90;;;;;;5093119;28;20031;-69
2022/09/29 08:29:32;;;;;;;10.23;6.78;;;8.60;99.90;;;;;;5093227;28;20056;-69
2022/09/29 08:31:58;;;;;;;10.98;7.03;;;8.60;99.90;;;;;;5093196;28;20088;-69
2022/09/29 08:34:24;;;;;;;11.18;7.10;;;8.70;99.90;;;;;;5093160;28;20032;-68
2022/09/29 08:36:50;;;;;;;10.23;6.22;;;8.80;99.90;;;;;;5093327;28;20020;-69
2022/09/29 08:39:18;;;;;;;7.95;5.93;;;8.80;99.90;;;;;;5092946;28;20158;-69
2022/09/29 08:41:51;;;;;;;9.63;6.97;;;8.90;99.90;;;;;;5093058;28;20028;-69
2022/09/29 08:44:19;;;;;;;6.97;5.45;;;8.90;99.90;;;;;;5093076;28;20032;-68
2022/09/29 08:46:58;;;;;;;8.77;6.18;;;9.00;99.90;;;;;;5093933;28;20016;-69
2022/09/29 08:49:30;;;;;;;10.13;5.88;;;9.10;99.90;;;;;;5097356;28;20020;-68
2022/09/29 08:52:02;;;;;;;9.98;6.07;;;9.10;99.90;;;;;;5097678;28;20031;-68
2022/09/29 08:54:34;;;;;;;7.90;5.22;;;9.10;99.90;;;;;;5096922;28;20020;-68
2022/09/29 08:57:01;;;;;;;6.93;4.68;;;9.20;99.90;;;;;;5096901;28;20024;-68
2022/09/29 08:59:28;;;;;;;7.82;4.78;;;9.30;99.90;;;;;;5097018;28;20455;-67
2022/09/29 09:02:28;;;;;;;5.72;3.70;;;9.30;99.90;;;;;;5096872;28;20051;-68
2022/09/29 09:05:04;;;;;;;5.25;3.22;;;9.40;99.90;;;;;;5097161;28;20020;-68
2022/09/29 09:08:00;;;;;;;4.57;3.20;;;9.50;99.90;;;;;;5096525;28;20020;-68
2022/09/29 09:10:47;;;;;;;9.25;3.47;;;9.50;99.90;;;;;;5093210;28;20033;-67
2022/09/29 09:13:35;;;;;;;4.30;3.20;;;9.60;99.90;;;;;;5096748;28;20024;-68
2022/09/29 09:16:06;;;;;;;4.57;3.28;;;9.70;99.90;;;;;;5096677;28;20023;-67
2022/09/29 09:18:47;;;;;;;6.28;3.67;;;9.80;99.90;;;;;;5096473;28;20042;-68
2022/09/29 09:21:17;;;;;;;5.13;3.10;;;9.90;99.90;;;;;;5096557;28;20024;-68
2022/09/29 09:23:52;;;;;;;5.60;3.43;;;10.00;99.90;;;;;;5096486;28;20020;-68
2022/09/29 09:26:22;;;;;;;6.53;2.80;;;10.10;99.90;;;;;;5096735;28;20024;-68
2022/09/29 09:28:56;;;;;;;3.10;2.22;;;10.20;99.90;;;;;;5096353;28;20126;-68
2022/09/29 09:31:29;;;;;;;3.95;2.72;;;10.40;99.90;;;;;;5096414;28;20047;-68
2022/09/29 09:34:19;;;;;;;5.30;2.00;;;10.50;99.90;;;;;;5096659;28;20486;-68
2022/09/29 09:36:57;;;;;;;4.50;2.70;;;10.60;99.90;;;;;;5096535;28;20472;-69
2022/09/29 09:40:10;;;;;;;3.75;2.40;;;10.60;99.90;;;;;;5096087;28;20503;-68
2022/09/29 09:42:41;;;;;;;5.05;2.15;;;10.60;99.90;;;;;;5054091;28;20155;-68
2022/09/29 09:45:44;;;;;;;2.92;1.98;;;10.70;99.90;;;;;;5092303;28;20103;-70
2022/09/29 09:48:31;;;;;;;3.92;1.88;;;10.80;99.90;;;;;;5072533;28;20028;-68
2022/09/29 09:51:01;;;;;;;3.10;1.30;;;10.90;99.90;;;;;;5096553;28;20024;-69
2022/09/29 09:53:49;;;;;;;4.40;1.48;;;11.10;99.90;;;;;;5095750;28;20036;-68
2022/09/29 09:56:30;;;;;;;2.20;1.38;;;11.20;99.90;;;;;;5096487;28;20024;-68
2022/09/29 09:59:01;;;;;;;2.92;1.38;;;11.20;99.90;;;;;;5095010;28;20048;-68
2022/09/29 10:01:27;;;;;;;1.77;1.08;;;11.30;99.90;;;;;;5095729;28;20038;-68
2022/09/29 10:03:53;;;;;;;2.95;1.42;;;11.40;99.90;;;;;;5095779;28;20099;-69
2022/09/29 10:06:19;;;;;;;3.28;1.40;;;11.60;99.90;;;;;;5095738;28;20103;-68
2022/09/29 10:08:45;;;;;;;3.47;1.65;;;11.80;99.90;;;;;;5095388;28;20454;-69
2022/09/29 10:11:24;;;;;;;2.90;1.55;;;11.90;99.90;;;;;;5095633;28;20028;-69
2022/09/29 10:13:57;;;;;;;1.65;1.02;;;11.90;99.90;;;;;;5095887;28;20483;-69
2022/09/29 10:16:35;;;;;;;1.55;0.93;;;12.00;99.90;;;;;;5095532;28;20024;-69
2022/09/29 10:19:01;;;;;;;2.40;0.90;;;12.10;99.90;;;;;;5096295;28;20038;-72
2022/09/29 10:21:38;;;;;;;2.10;1.08;;;12.10;99.90;;;;;;5095301;28;20099;-72
2022/09/29 10:24:18;;;;;;;1.63;0.70;;;12.10;99.90;;;;;;5095154;28;20020;-72
2022/09/29 10:26:46;;;;;;;1.45;0.70;;;12.20;99.90;;;;;;5095578;28;20016;-71
2022/09/29 10:29:33;;;;;;;2.45;0.88;;;12.20;99.90;;;;;;5095262;28;20174;-71
2022/09/29 10:32:04;;;;;;;3.20;0.70;;;12.20;99.90;;;;;;5095511;28;20051;-72
2022/09/29 10:34:32;;;;;;;1.10;0.60;;;12.40;99.90;;;;;;5095453;28;20020;-72
2022/09/29 10:37:00;;;;;;;2.33;0.90;;;12.50;99.90;;;;;;5095510;28;20062;-72
2022/09/29 10:39:41;;;;;;;1.00;0.60;;;12.70;99.90;;;;;;5094823;28;20043;-72
2022/09/29 10:42:30;;;;;;;0.75;0.43;;;13.00;99.90;;;;;;5095301;28;20448;-72
2022/09/29 10:45:21;;;;;;;1.08;0.50;;;13.20;99.90;;;;;;5095281;28;20024;-72
2022/09/29 10:48:03;;;;;;;4.65;0.70;;;13.30;99.90;;;;;;5094957;28;20503;-71
2022/09/29 10:50:34;;;;;;;1.40;0.60;;;13.30;99.90;;;;;;5095107;28;20065;-71
2022/09/29 10:53:04;;;;;;;2.83;1.15;;;13.30;99.90;;;;;;5094626;28;20024;-72
2022/09/29 10:55:46;;;;;;;2.20;1.20;;;13.30;99.90;;;;;;5076644;28;20024;-72
2022/09/29 10:58:42;;;;;;;1.45;0.80;;;13.30;99.90;;;;;;5094785;28;20032;-73
2022/09/29 11:01:16;;;;;;;2.35;1.08;;;13.40;99.90;;;;;;5093630;28;20039;-72
2022/09/29 11:03:52;;;;;;;2.35;1.10;;;13.50;99.90;;;;;;5094761;28;20051;-72
2022/09/29 11:06:26;;;;;;;1.90;0.70;;;13.50;99.90;;;;;;5094561;28;20388;-72
2022/09/29 11:09:00;;;;;;;1.45;0.80;;;13.50;99.90;;;;;;5076081;28;20016;-72
2022/09/29 11:11:35;;;;;;;1.05;0.77;;;13.40;99.90;;;;;;5094982;28;20035;-72
2022/09/29 11:14:01;;;;;;;2.38;0.65;;;13.40;99.90;;;;;;5094705;28;20483;-72
2022/09/29 11:16:36;;;;;;;1.25;0.65;;;13.40;99.90;;;;;;5094498;28;20029;-74
2022/09/29 11:19:13;;;;;;;1.05;0.60;;;13.40;99.90;;;;;;5094648;28;20097;-73
2022/09/29 11:21:49;;;;;;;2.22;0.40;;;13.40;99.90;;;;;;5094715;28;20073;-72
2022/09/29 11:24:49;;;;;;;0.40;0.20;;;13.30;99.90;;;;;;5093990;28;20077;-73
2022/09/29 11:27:44;;;;;;;0.68;0.30;;;13.40;99.90;;;;;;5075917;28;20024;-72
2022/09/29 11:30:23;;;;;;;0.80;0.47;;;13.40;99.90;;;;;;5079826;28;20349;-72
2022/09/29 11:33:17;;;;;;;0.40;0.17;;;13.30;99.90;;;;;;5066634;28;20025;-73
2022/09/29 11:36:00;;;;;;;1.60;0.82;;;13.20;99.90;;;;;;5060966;28;20028;-73
2022/09/29 11:38:59;;;;;;;3.58;1.15;;;13.20;99.90;;;;;;5061052;28;20033;-73
2022/09/29 11:41:31;;;;;;;18.95;10.80;;;13.20;99.90;;;;;;5057033;28;20040;-72
2022/09/29 11:44:12;;;;;;;15.98;10.23;;;13.30;99.90;;;;;;5072817;28;20020;-73
2022/09/29 11:47:08;;;;;;;4.07;1.60;;;13.40;99.90;;;;;;5062276;28;20431;-73
2022/09/29 11:49:39;;;;;;;4.57;1.52;;;13.60;99.90;;;;;;5063218;28;20028;-72
2022/09/29 11:52:16;;;;;;;;;;;13.70;99.90;;;;;;5063227;28;20033;-73
2022/09/29 11:55:01;;;;;;;2.60;1.40;;;14.00;99.90;;;;;;5058804;28;20003;-73
2022/09/29 11:57:54;;;;;;;2.08;1.25;;;14.30;99.90;;;;;;5053788;28;20032;-73
2022/09/29 12:00:25;;;;;;;0.95;0.50;;;14.40;99.90;;;;;;5064776;28;20035;-73
2022/09/29 12:03:01;;;;;;;1.88;1.23;;;14.40;99.90;;;;;;5073306;28;20024;-73
2022/09/29 12:06:08;;;;;;;0.50;0.30;;;14.30;99.90;;;;;;5053577;28;20025;-73
2022/09/29 12:08:55;;;;;;;0.65;0.20;;;14.20;99.90;;;;;;5068494;28;20028;-72
2022/09/29 12:11:54;;;;;;;0.95;0.30;;;14.20;99.90;;;;;;5073203;28;20366;-74
2022/09/29 12:14:27;;;;;;;1.55;0.20;;;14.10;99.90;;;;;;5073433;28;20025;-73
2022/09/29 12:16:58;;;;;;;0.63;0.30;;;14.10;99.90;;;;;;5073026;28;20089;-74
2022/09/29 12:19:29;;;;;;;2.33;0.60;;;14.00;99.90;;;;;;5073061;28;20027;-74
2022/09/29 12:21:59;;;;;;;0.82;0.30;;;14.00;99.90;;;;;;5072902;28;20381;-74
2022/09/29 12:24:47;;;;;;;1.65;1.25;;;14.00;99.90;;;;;;5072891;28;20020;-74
2022/09/29 12:27:35;;;;;;;1.50;0.20;;;13.90;99.90;;;;;;5073145;28;20017;-72
2022/09/29 12:30:15;;;;;;;1.10;0.10;;;13.80;99.90;;;;;;5073080;28;20031;-74
2022/09/29 12:32:45;;;;;;;1.17;0.22;;;13.90;99.90;;;;;;5073058;28;20523;-74
2022/09/29 12:35:19;;;;;;;2.50;0.20;;;13.90;99.90;;;;;;5055013;28;20476;-71
2022/09/29 12:37:55;;;;;;;1.20;0.60;;;14.00;99.90;;;;;;5073077;28;20090;-71
2022/09/29 12:40:31;;;;;;;0.28;0.10;;;14.00;99.90;;;;;;5072737;28;20518;-73
2022/09/29 12:43:00;;;;;;;0.57;0.30;;;13.90;99.90;;;;;;5072875;28;20033;-74
2022/09/29 12:45:30;;;;;;;0.30;0.20;;;13.90;99.90;;;;;;5072856;28;20095;-74
2022/09/29 12:48:18;;;;;;;0.63;0.30;;;13.90;99.90;;;;;;5072942;28;20099;-73
2022/09/29 12:51:16;;;;;;;2.00;0.43;;;13.90;99.90;;;;;;5085002;28;20020;-73
2022/09/29 12:54:04;;;;;;;1.52;0.30;;;14.00;99.90;;;;;;5092817;28;20024;-73
2022/09/29 12:56:38;;;;;;;4.38;0.40;;;14.00;99.90;;;;;;5092940;28;20036;-73
2022/09/29 12:59:26;;;;;;;0.25;0.20;;;13.90;99.90;;;;;;5092975;28;20024;-73
2022/09/29 13:01:55;;;;;;;1.33;0.20;;;13.80;99.90;;;;;;5093713;28;20031;-71
2022/09/29 13:04:26;;;;;;;0.40;0.20;;;13.70;99.90;;;;;;5092864;28;20017;-72
2022/09/29 13:07:04;;;;;;;;;;;13.50;99.90;;;;;;5093223;28;20020;-73
2022/09/29 13:09:41;;;;;;;2.80;0.30;;;13.50;99.90;;;;;;5074559;28;20037;-73
2022/09/29 13:12:57;;;;;;;0.35;0.20;;;13.50;99.90;;;;;;5092907;28;20475;-73
2022/09/29 13:15:34;;;;;;;0.38;0.20;;;13.40;99.90;;;;;;5075327;28;20040;-72
2022/09/29 13:18:25;;;;;;;1.20;0.30;;;13.30;99.90;;;;;;5092628;28;20036;-72
2022/09/29 13:21:21;;;;;;;0.63;0.38;;;13.20;99.90;;;;;;5093089;28;20031;-73
2022/09/29 13:24:06;;;;;;;0.50;0.30;;;13.20;99.90;;;;;;5078922;28;20032;-73